Felker Army Air Field
KFAF : now visible

Airfield :











YOU CAN JOIN US ON...

 
LOGIN :

Register | Disclaimer

   EN    FR    IT 

 









Legend :    VFR   Marginal VFR   IFR   Intensive IFR   Very Intensive IFR
Visi :
Ceiling :
>= 8 km
>= 3000ft
5 to 8 km
1000 to 3000 ft
1500m to 5 km
500 to 1000 ft
800 to 1500m
200 to 500 ft
< 800m
< 200 ft
Symbols :   Thunderstorms  Fog  Heavy snow  Heavy precipitations  Wind > 20 kt






- Airport Elevation : 12 ft


KFAF - Felker Army Air Field

CURRENT METAR :
  • 130456Z AUTO 16003KT 10SM CLR 25/24 A3000 RMK AO2 DZB0358E34 SLP162 P0000 T02450238 403240241 $

EXPIRED METARs :
  • 130434Z AUTO 00000KT 10SM CLR 25/24 A3001 RMK AO2 DZB0358E34 SLP165 $
  • 130358Z AUTO 00000KT 10SM -DZ FEW230 25/24 A3001 RMK AO2 DZB58 SLP165 $
  • 130356Z AUTO 14003KT 10SM CLR 25/24 A3001 RMK AO2 DZB0257E36 SLP165 P0000 T02480236 $
  • 130336Z AUTO 00000KT 10SM CLR 25/23 A3002 RMK AO2 DZB0257E36 SLP169 $
  • 130257Z AUTO 08004KT 10SM -DZ FEW031 25/23 A3003 RMK AO2 DZB57 SLP172 $

TAF TAF KFAF
Valid from the 12 at 18:00 until the 14 at 00:00 UTC


121800Z 1218/1324 15009KT 8000 -SHRA BKN030 BKN075 QNH2997INS
TEMPO 1218/1301 15010G15KT 6000 -TSRA BKN025CB
BECMG 1303/1304 18009KT 9999 NSW FEW010 BKN020 QNH2999INS
TEMPO 1316/1324 15015G25KT 3200 TSRA BKN020CB
BECMG 1323/1324 VRB06KT 9999 BKN025 BKN100 QNH2996INS TX32/1218Z TN25/1307Z LAST NO AMDS AFT 1221 NEXT 1310
KZDC FIR / North America



MET'MAP, your aeronautical weather chart ! - Copyright ORBIFLY December 2007 - Disclaimer

ORBIFLY MET'MAP TEAM :

Programming & Development : Alexandra Zaïnal
Concept & original design : Baudouin d'Aumeries
Assistance for programming : Marc-Olivier Méhu
Technical & hardware support : Manuel Goepfert

Contact : metmap@orbifly.com




SOURCES & CREDITS :

   NOAA       Earth
Advisory